Time;durP1;ratioP1;P1;durP2;ratioP2;P2;SDS_P1;SDS_P2;PMS_P1;PMS_P2;Temp;Humidity;BMP_temperature;BMP_pressure;BME280_temperature;BME280_humidity;BME280_pressure;Samples;Min_cycle;Max_cycle;Signal;HPM_P1;HPM_P2
2023/05/22 00:00:17;;;;;;;6.03;4.88;;;23.60;57.40;;;;;;5012005;28;20101;-76
2023/05/22 00:02:44;;;;;;;5.88;4.75;;;23.60;57.50;;;;;;5013710;28;20026;-77
2023/05/22 00:05:13;;;;;;;5.40;4.63;;;23.50;57.50;;;;;;4995914;28;20030;-76
2023/05/22 00:07:41;;;;;;;5.53;4.93;;;23.50;57.50;;;;;;5012271;28;20042;-76
2023/05/22 00:10:08;;;;;;;6.13;5.45;;;23.50;57.60;;;;;;5045336;28;20482;-77
2023/05/22 00:12:33;;;;;;;6.03;5.38;;;23.40;57.50;;;;;;5013704;28;20110;-76
2023/05/22 00:14:59;;;;;;;6.50;5.20;;;23.40;57.60;;;;;;5012506;28;20097;-76
2023/05/22 00:17:25;;;;;;;6.60;5.28;;;23.40;57.60;;;;;;5028624;28;20124;-76
2023/05/22 00:19:54;;;;;;;6.97;5.60;;;23.40;57.60;;;;;;5013623;28;20040;-75
2023/05/22 00:22:19;;;;;;;7.18;5.40;;;23.40;57.70;;;;;;5012090;28;20034;-77
2023/05/22 00:24:45;;;;;;;5.93;4.93;;;23.30;57.70;;;;;;5013608;28;20084;-75
2023/05/22 00:27:11;;;;;;;6.35;5.43;;;23.30;57.70;;;;;;4995925;28;20045;-76
2023/05/22 00:29:37;;;;;;;6.97;5.68;;;23.30;57.80;;;;;;5012059;28;20030;-76
2023/05/22 00:32:04;;;;;;;6.30;5.35;;;23.30;57.80;;;;;;5028413;28;20022;-75
2023/05/22 00:34:30;;;;;;;7.38;5.95;;;23.30;57.90;;;;;;5044750;28;20026;-77
2023/05/22 00:36:55;;;;;;;7.07;5.65;;;23.20;57.90;;;;;;4995625;28;20092;-76
2023/05/22 00:39:21;;;;;;;7.47;6.05;;;23.20;58.00;;;;;;5013750;28;20026;-76
2023/05/22 00:41:47;;;;;;;7.00;5.70;;;23.20;58.00;;;;;;5044784;28;20479;-76
2023/05/22 00:44:13;;;;;;;6.47;5.43;;;23.10;58.00;;;;;;5012145;28;20356;-76
2023/05/22 00:46:39;;;;;;;7.10;5.28;;;23.10;58.00;;;;;;4995674;28;20030;-76
2023/05/22 00:49:05;;;;;;;7.28;5.88;;;23.10;58.10;;;;;;5013076;28;20022;-77
2023/05/22 00:51:31;;;;;;;6.78;5.57;;;23.10;58.10;;;;;;5012310;28;20104;-77
2023/05/22 00:53:57;;;;;;;7.47;5.88;;;23.10;58.20;;;;;;5011943;28;20054;-76
2023/05/22 00:56:23;;;;;;;6.57;5.63;;;23.00;58.20;;;;;;5011905;28;20487;-77
2023/05/22 00:58:49;;;;;;;7.13;5.55;;;23.00;58.10;;;;;;5013264;28;20490;-76
2023/05/22 01:01:16;;;;;;;7.53;6.25;;;23.00;58.20;;;;;;5044750;28;20038;-75
2023/05/22 01:03:44;;;;;;;6.78;5.78;;;23.00;58.20;;;;;;5027703;28;20036;-75
2023/05/22 01:06:14;;;;;;;6.32;5.30;;;22.90;58.20;;;;;;5045375;28;20558;-76
2023/05/22 01:08:41;;;;;;;6.65;5.75;;;23.00;58.90;;;;;;5011766;28;20402;-76
2023/05/22 01:11:20;;;;;;;7.32;5.43;;;22.90;58.30;;;;;;5028229;28;20498;-76
2023/05/22 01:13:59;;;;;;;7.22;5.80;;;22.90;58.30;;;;;;5028081;28;20026;-76
2023/05/22 01:16:45;;;;;;;7.07;5.65;;;22.80;58.30;;;;;;5028214;28;20053;-76
2023/05/22 01:19:30;;;;;;;6.55;5.25;;;22.80;58.30;;;;;;5011678;28;20040;-77
2023/05/22 01:22:08;;;;;;;6.47;5.03;;;22.80;58.30;;;;;;5029923;28;20030;-76
2023/05/22 01:24:57;;;;;;;6.75;5.15;;;22.80;58.40;;;;;;5031758;28;20080;-76
2023/05/22 01:27:34;;;;;;;7.13;5.65;;;22.70;58.50;;;;;;5005407;28;20132;-77
2023/05/22 01:30:32;;;;;;;6.20;5.05;;;22.70;58.50;;;;;;5031578;28;20092;-76
2023/05/22 01:32:59;;;;;;;6.38;5.35;;;22.70;58.60;;;;;;5004205;28;20035;-77
2023/05/22 01:35:27;;;;;;;7.13;5.68;;;22.70;58.50;;;;;;5047838;28;20173;-76
2023/05/22 01:37:53;;;;;;;7.80;6.18;;;22.60;58.60;;;;;;5047826;28;20042;-77
2023/05/22 01:40:19;;;;;;;7.38;6.18;;;22.60;58.60;;;;;;5047602;28;20122;-77
2023/05/22 01:42:45;;;;;;;7.47;5.80;;;22.60;58.60;;;;;;5014863;28;20045;-76
2023/05/22 01:45:13;;;;;;;7.60;6.03;;;22.60;58.70;;;;;;5015299;28;20030;-76
2023/05/22 01:47:39;;;;;;;6.45;5.40;;;22.50;58.80;;;;;;5014876;28;20037;-77
2023/05/22 01:50:05;;;;;;;7.47;5.82;;;22.50;58.90;;;;;;5031014;28;20033;-77
2023/05/22 01:53:17;;;;;;;7.38;6.07;;;22.50;59.00;;;;;;5015401;28;20447;-77
2023/05/22 01:56:04;;;;;;;7.63;6.18;;;22.40;59.00;;;;;;5015683;28;20042;-76
2023/05/22 01:58:47;;;;;;;7.15;5.78;;;22.40;59.10;;;;;;5014748;28;20399;-77
2023/05/22 02:01:14;;;;;;;6.65;5.43;;;22.40;59.10;;;;;;5048530;28;20046;-77
2023/05/22 02:03:41;;;;;;;7.47;6.00;;;22.30;59.10;;;;;;4998298;28;20447;-77
2023/05/22 02:06:12;;;;;;;7.80;6.55;;;22.30;59.20;;;;;;5047285;28;20441;-76
2023/05/22 02:08:40;;;;;;;7.75;6.38;;;22.30;59.20;;;;;;5014096;28;20084;-76
2023/05/22 02:11:11;;;;;;;6.72;5.82;;;22.30;59.30;;;;;;5030785;28;20026;-76
2023/05/22 02:13:37;;;;;;;7.70;6.13;;;22.30;59.30;;;;;;5014614;28;20490;-76
2023/05/22 02:16:03;;;;;;;6.72;5.90;;;22.30;59.40;;;;;;5048224;28;20026;-76
2023/05/22 02:18:30;;;;;;;7.57;6.25;;;22.20;59.40;;;;;;5014251;28;20037;-78
2023/05/22 02:20:57;;;;;;;7.60;6.15;;;22.20;59.40;;;;;;5048561;28;20038;-76
2023/05/22 02:23:23;;;;;;;7.00;6.03;;;22.20;59.40;;;;;;5014310;28;20499;-77
2023/05/22 02:25:49;;;;;;;7.70;6.15;;;22.20;59.50;;;;;;5030439;28;20033;-76
2023/05/22 02:28:15;;;;;;;6.72;5.40;;;22.20;59.50;;;;;;5047644;28;20125;-75
2023/05/22 02:30:40;;;;;;;7.78;6.20;;;22.10;59.50;;;;;;4981364;28;20164;-77
2023/05/22 02:33:08;;;;;;;8.00;5.97;;;22.10;59.60;;;;;;5013405;28;20092;-77
2023/05/22 02:35:34;;;;;;;9.18;6.45;;;22.10;59.60;;;;;;4998421;28;20029;-77
2023/05/22 02:38:00;;;;;;;7.40;6.05;;;22.10;59.60;;;;;;5030764;28;20486;-77
2023/05/22 02:40:27;;;;;;;8.07;6.13;;;22.10;59.60;;;;;;5047784;28;20026;-76
2023/05/22 02:42:52;;;;;;;7.10;5.68;;;22.10;59.70;;;;;;4998261;28;20344;-77
2023/05/22 02:45:18;;;;;;;7.63;6.50;;;22.00;59.60;;;;;;5014628;28;20344;-76
2023/05/22 02:47:44;;;;;;;6.97;5.53;;;22.00;59.60;;;;;;5046797;28;20034;-78
2023/05/22 02:50:11;;;;;;;8.05;6.20;;;22.00;59.80;;;;;;5046519;28;20045;-76
2023/05/22 02:52:38;;;;;;;6.80;6.05;;;22.00;59.80;;;;;;5013482;28;20026;-77
2023/05/22 02:55:04;;;;;;;7.40;6.20;;;21.90;59.80;;;;;;5046420;28;20116;-76
2023/05/22 02:57:30;;;;;;;7.35;5.93;;;21.90;59.90;;;;;;5013688;28;20188;-76
2023/05/22 02:59:58;;;;;;;7.20;6.00;;;21.80;59.90;;;;;;5014806;28;20428;-76
2023/05/22 03:02:27;;;;;;;6.90;5.88;;;21.80;59.90;;;;;;5013209;28;20046;-78
2023/05/22 03:04:53;;;;;;;7.05;5.90;;;21.80;59.90;;;;;;5013919;28;20025;-77
2023/05/22 03:07:20;;;;;;;6.70;5.50;;;21.80;59.90;;;;;;5046235;28;20042;-76
2023/05/22 03:09:46;;;;;;;7.43;5.97;;;21.80;60.00;;;;;;5013261;28;20037;-78
2023/05/22 03:12:12;;;;;;;6.90;5.85;;;21.80;60.00;;;;;;5029784;28;20058;-77
2023/05/22 03:14:37;;;;;;;8.77;6.32;;;21.70;60.00;;;;;;5013692;28;20038;-77
2023/05/22 03:17:03;;;;;;;7.35;6.28;;;21.70;60.00;;;;;;4997139;28;20084;-77
2023/05/22 03:19:29;;;;;;;7.30;5.53;;;21.70;60.00;;;;;;5045976;28;20029;-77
2023/05/22 03:21:55;;;;;;;6.97;5.63;;;21.60;60.00;;;;;;4997290;28;20121;-77
2023/05/22 03:24:21;;;;;;;7.03;5.97;;;21.60;60.10;;;;;;5029550;28;20042;-76
2023/05/22 03:26:47;;;;;;;7.53;6.22;;;21.60;60.10;;;;;;5045969;28;20029;-76
2023/05/22 03:29:19;;;;;;;7.80;6.05;;;21.60;60.20;;;;;;5012566;28;20034;-76
2023/05/22 03:31:45;;;;;;;6.93;5.70;;;21.50;60.20;;;;;;5012810;28;20096;-76
2023/05/22 03:34:13;;;;;;;7.72;6.20;;;21.50;60.20;;;;;;5029132;28;20038;-76
2023/05/22 03:36:43;;;;;;;7.60;6.07;;;21.50;60.20;;;;;;5013712;28;20053;-77
2023/05/22 03:39:10;;;;;;;8.30;6.38;;;21.50;60.20;;;;;;5045950;28;20037;-77
2023/05/22 03:41:40;;;;;;;7.50;6.03;;;21.40;60.90;;;;;;5013454;28;20034;-76
2023/05/22 03:44:07;;;;;;;7.10;5.78;;;21.40;60.30;;;;;;5045538;28;20088;-76
2023/05/22 03:46:32;;;;;;;7.53;5.47;;;21.40;60.30;;;;;;5012860;28;20025;-77
2023/05/22 03:48:58;;;;;;;7.13;6.03;;;21.40;60.50;;;;;;5045702;28;20351;-76
2023/05/22 03:51:24;;;;;;;7.13;5.70;;;21.40;60.50;;;;;;5012763;28;20036;-76
2023/05/22 03:53:50;;;;;;;7.82;5.90;;;21.30;60.40;;;;;;5012250;28;20084;-76
2023/05/22 03:56:16;;;;;;;8.10;6.07;;;21.30;60.50;;;;;;5045840;28;20034;-76
2023/05/22 03:58:41;;;;;;;7.68;6.30;;;21.30;60.50;;;;;;4996338;28;20034;-76
2023/05/22 04:01:08;;;;;;;7.45;6.55;;;21.20;60.50;;;;;;4996244;28;20531;-77
2023/05/22 04:03:35;;;;;;;6.50;5.50;;;21.20;60.50;;;;;;4996180;28;20040;-75
2023/05/22 04:06:02;;;;;;;7.40;5.93;;;21.20;60.70;;;;;;4996757;28;20030;-76
2023/05/22 04:08:29;;;;;;;6.57;5.72;;;21.20;60.70;;;;;;5012224;28;20352;-76
2023/05/22 04:10:55;;;;;;;7.50;6.25;;;21.10;60.70;;;;;;5012281;28;20022;-77
2023/05/22 04:13:20;;;;;;;8.35;6.47;;;21.10;60.70;;;;;;5028449;28;20034;-76
2023/05/22 04:15:46;;;;;;;7.18;5.85;;;21.10;60.80;;;;;;4995791;28;20036;-76
2023/05/22 04:18:13;;;;;;;7.57;6.57;;;21.10;60.90;;;;;;5012284;28;20513;-76
2023/05/22 04:20:41;;;;;;;7.95;6.50;;;21.10;60.90;;;;;;5028592;28;20029;-77
2023/05/22 04:23:07;;;;;;;7.38;6.57;;;21.00;60.80;;;;;;5028285;28;20022;-76
2023/05/22 04:25:33;;;;;;;7.38;5.93;;;21.00;60.90;;;;;;5044884;28;20022;-76
2023/05/22 04:28:02;;;;;;;8.05;5.68;;;21.00;60.90;;;;;;5012532;28;20038;-77
2023/05/22 04:30:32;;;;;;;8.35;6.57;;;21.00;60.90;;;;;;5028668;28;20018;-77
2023/05/22 04:32:59;;;;;;;7.80;6.50;;;20.90;61.00;;;;;;5012923;28;20034;-76
2023/05/22 04:35:28;;;;;;;7.68;6.05;;;20.90;61.00;;;;;;5012133;28;20026;-76
2023/05/22 04:37:55;;;;;;;7.63;6.60;;;20.90;61.10;;;;;;5012006;28;20045;-76
2023/05/22 04:40:21;;;;;;;7.45;6.20;;;20.90;61.10;;;;;;5028119;28;20033;-77
2023/05/22 04:42:47;;;;;;;8.23;6.70;;;20.90;61.20;;;;;;4995734;28;20034;-78
2023/05/22 04:45:12;;;;;;;8.05;6.68;;;20.90;61.30;;;;;;5012071;28;20038;-78
2023/05/22 04:47:40;;;;;;;7.07;5.80;;;20.80;61.20;;;;;;4996131;28;20116;-77
2023/05/22 04:50:07;;;;;;;8.32;6.95;;;20.80;61.20;;;;;;5044909;28;20026;-78
2023/05/22 04:52:33;;;;;;;8.00;6.40;;;20.80;61.30;;;;;;4995637;28;20030;-76
2023/05/22 04:54:59;;;;;;;7.30;6.50;;;20.80;61.30;;;;;;5045100;28;20063;-76
2023/05/22 04:57:26;;;;;;;7.82;6.38;;;20.70;61.30;;;;;;4998560;28;20076;-77
2023/05/22 04:59:53;;;;;;;7.15;5.97;;;20.70;61.30;;;;;;5016271;28;20073;-77
2023/05/22 05:02:18;;;;;;;7.50;6.35;;;20.70;61.30;;;;;;5048918;28;20125;-77
2023/05/22 05:04:45;;;;;;;7.82;6.55;;;20.70;62.00;;;;;;4999510;28;20117;-78
2023/05/22 05:07:12;;;;;;;7.90;6.63;;;20.70;61.40;;;;;;5015855;28;20061;-77
2023/05/22 05:09:38;;;;;;;7.20;6.28;;;20.70;61.50;;;;;;5031709;28;20033;-77
2023/05/22 05:12:04;;;;;;;6.95;5.53;;;20.60;61.40;;;;;;5048575;28;20037;-77
2023/05/22 05:14:29;;;;;;;8.43;6.57;;;20.60;61.40;;;;;;4999676;28;20084;-76
2023/05/22 05:16:57;;;;;;;7.05;5.93;;;20.60;61.40;;;;;;5015401;28;20030;-77
2023/05/22 05:19:23;;;;;;;8.40;6.65;;;20.60;61.50;;;;;;5015180;28;20022;-77
2023/05/22 05:21:49;;;;;;;7.90;6.53;;;20.60;61.50;;;;;;5016188;28;20030;-78
2023/05/22 05:24:16;;;;;;;7.22;5.75;;;20.50;61.50;;;;;;5048416;28;20033;-78
2023/05/22 05:26:43;;;;;;;7.38;6.18;;;20.50;61.50;;;;;;5014946;28;20188;-78
2023/05/22 05:29:09;;;;;;;7.88;6.43;;;20.50;61.50;;;;;;4999443;28;20141;-79
2023/05/22 05:31:45;;;;;;;6.97;5.95;;;20.50;61.50;;;;;;5016560;28;20045;-78
2023/05/22 05:34:31;;;;;;;7.00;6.03;;;20.50;61.50;;;;;;5014934;28;20048;-79
2023/05/22 05:37:03;;;;;;;7.63;5.22;;;20.50;61.50;;;;;;5016022;28;20125;-79
2023/05/22 05:39:30;;;;;;;6.38;5.53;;;20.50;61.50;;;;;;5015376;28;20463;-77
2023/05/22 05:41:57;;;;;;;6.85;6.00;;;20.50;61.50;;;;;;4998983;28;20458;-78
2023/05/22 05:44:23;;;;;;;7.25;6.07;;;20.40;61.50;;;;;;4998666;28;20040;-78
2023/05/22 05:46:49;;;;;;;7.10;5.80;;;20.40;61.60;;;;;;4998613;28;20049;-78
2023/05/22 05:49:18;;;;;;;6.70;5.32;;;20.40;62.30;;;;;;4999643;28;20056;-77
2023/05/22 05:51:44;;;;;;;7.38;5.82;;;20.40;61.60;;;;;;5047931;28;20030;-79
2023/05/22 05:54:11;;;;;;;6.97;5.43;;;20.40;61.60;;;;;;5047687;28;20092;-78
2023/05/22 05:56:37;;;;;;;6.75;6.03;;;20.40;61.70;;;;;;4982269;28;20037;-78
2023/05/22 05:59:03;;;;;;;6.55;5.57;;;20.40;61.70;;;;;;5015021;28;20456;-78
2023/05/22 06:01:38;;;;;;;6.78;5.50;;;20.40;61.70;;;;;;5015946;28;20451;-78
2023/05/22 06:04:07;;;;;;;7.20;5.75;;;20.40;61.70;;;;;;5014948;28;20034;-78
2023/05/22 06:06:38;;;;;;;6.57;5.28;;;20.40;61.70;;;;;;5047638;28;20364;-79
2023/05/22 06:09:07;;;;;;;7.18;5.60;;;20.40;61.70;;;;;;5030886;28;20069;-77
2023/05/22 06:11:45;;;;;;;7.18;5.95;;;20.40;61.70;;;;;;5047705;28;20044;-78
2023/05/22 06:14:12;;;;;;;6.93;5.32;;;20.30;61.70;;;;;;4998506;28;20026;-78
2023/05/22 06:16:37;;;;;;;6.68;5.47;;;20.30;61.70;;;;;;4998155;28;20041;-78
2023/05/22 06:19:03;;;;;;;6.40;5.15;;;20.30;61.70;;;;;;5047910;28;20065;-78
2023/05/22 06:21:30;;;;;;;6.80;5.78;;;20.30;61.80;;;;;;4998698;28;20030;-78
2023/05/22 06:23:56;;;;;;;6.32;5.18;;;20.30;61.80;;;;;;5030938;28;20033;-77
2023/05/22 06:26:24;;;;;;;6.88;5.47;;;20.30;61.80;;;;;;4998330;28;20489;-77
2023/05/22 06:28:51;;;;;;;7.32;6.15;;;20.30;61.80;;;;;;4998559;28;20080;-79
2023/05/22 06:31:17;;;;;;;6.65;5.95;;;20.30;61.90;;;;;;5047625;28;20022;-80
2023/05/22 06:33:46;;;;;;;6.70;5.97;;;20.40;62.00;;;;;;4998399;28;20042;-80
2023/05/22 06:36:12;;;;;;;6.82;5.60;;;20.40;62.00;;;;;;4998317;28;20478;-78
2023/05/22 06:38:38;;;;;;;7.40;6.10;;;20.40;62.10;;;;;;5014269;28;20127;-78
2023/05/22 06:41:08;;;;;;;6.85;5.57;;;20.30;62.10;;;;;;5031151;28;20451;-78
2023/05/22 06:43:34;;;;;;;6.40;5.55;;;20.30;62.10;;;;;;5014184;28;20084;-76
2023/05/22 06:46:06;;;;;;;6.63;5.47;;;20.30;62.10;;;;;;5015273;28;20536;-76
2023/05/22 06:48:48;;;;;;;6.93;5.72;;;20.40;62.20;;;;;;5047099;28;20133;-77
2023/05/22 06:51:20;;;;;;;6.43;5.65;;;20.30;62.10;;;;;;5014881;28;20040;-77
2023/05/22 06:53:51;;;;;;;6.78;5.18;;;20.40;62.20;;;;;;5014366;28;20054;-77
2023/05/22 06:56:21;;;;;;;6.93;5.57;;;20.40;62.20;;;;;;5030628;28;20038;-77
2023/05/22 06:59:00;;;;;;;7.10;5.65;;;20.40;62.30;;;;;;5013657;28;20042;-77
2023/05/22 07:01:52;;;;;;;6.38;5.45;;;20.40;62.30;;;;;;5017545;28;20459;-76
2023/05/22 07:04:35;;;;;;;7.35;5.95;;;20.40;62.20;;;;;;5046754;28;20029;-78
2023/05/22 07:07:06;;;;;;;7.55;5.90;;;20.40;62.30;;;;;;5014455;28;20404;-76
2023/05/22 07:09:33;;;;;;;6.95;6.13;;;20.40;62.40;;;;;;5030245;28;20114;-77
2023/05/22 07:12:00;;;;;;;6.90;5.65;;;20.40;62.40;;;;;;4997410;28;20162;-78
2023/05/22 07:14:26;;;;;;;6.45;5.63;;;20.40;62.40;;;;;;5013655;28;20041;-77
2023/05/22 07:16:52;;;;;;;6.88;5.97;;;20.40;62.40;;;;;;5013468;28;20030;-77
2023/05/22 07:19:24;;;;;;;7.40;6.22;;;20.40;62.40;;;;;;5014585;28;20076;-77
2023/05/22 07:21:51;;;;;;;7.25;5.78;;;20.40;62.40;;;;;;5046771;28;20046;-77
2023/05/22 07:24:18;;;;;;;8.27;6.18;;;20.50;62.40;;;;;;4997631;28;20026;-78
2023/05/22 07:26:47;;;;;;;7.65;5.80;;;20.50;62.40;;;;;;5013489;28;20120;-77
2023/05/22 07:29:14;;;;;;;6.95;5.95;;;20.50;62.40;;;;;;4982562;28;20113;-77
2023/05/22 07:31:41;;;;;;;6.78;5.75;;;20.50;62.40;;;;;;4996775;28;20026;-77
2023/05/22 07:34:07;;;;;;;7.05;6.20;;;20.50;62.40;;;;;;4996997;28;20141;-77
2023/05/22 07:36:34;;;;;;;6.78;6.00;;;20.60;62.40;;;;;;5029534;28;20068;-76
2023/05/22 07:39:01;;;;;;;6.68;5.82;;;20.60;62.40;;;;;;5029519;28;20038;-77
2023/05/22 07:41:27;;;;;;;7.68;6.05;;;20.60;62.40;;;;;;5013134;28;20033;-77
2023/05/22 07:43:53;;;;;;;6.65;5.95;;;20.70;62.40;;;;;;4980600;28;20467;-77
2023/05/22 07:46:24;;;;;;;7.35;5.95;;;20.70;62.40;;;;;;5045729;28;20160;-77
2023/05/22 07:48:58;;;;;;;6.70;5.68;;;20.70;62.40;;;;;;5014091;28;20478;-77
2023/05/22 07:51:24;;;;;;;6.57;5.63;;;20.80;62.30;;;;;;5012953;28;20038;-77
2023/05/22 07:53:51;;;;;;;7.63;5.72;;;20.80;62.30;;;;;;5012609;28;20060;-78
2023/05/22 07:56:16;;;;;;;6.35;5.65;;;20.90;62.20;;;;;;5012621;28;20391;-78
2023/05/22 07:58:47;;;;;;;6.60;5.63;;;20.90;62.20;;;;;;5029333;28;20092;-78
2023/05/22 08:01:14;;;;;;;7.10;5.80;;;20.90;62.10;;;;;;5045860;28;20478;-78
2023/05/22 08:03:40;;;;;;;6.47;5.55;;;21.00;62.10;;;;;;5012617;28;20080;-78
2023/05/22 08:06:06;;;;;;;6.50;5.55;;;21.00;61.90;;;;;;4996226;28;20088;-78
2023/05/22 08:08:32;;;;;;;6.85;5.65;;;21.10;61.90;;;;;;5013500;28;20041;-77
2023/05/22 08:10:58;;;;;;;6.97;5.85;;;21.20;61.90;;;;;;5012870;28;20034;-77
2023/05/22 08:13:24;;;;;;;7.38;5.57;;;21.30;61.90;;;;;;4996265;28;20034;-78
2023/05/22 08:15:50;;;;;;;6.90;5.65;;;21.30;61.80;;;;;;5013674;28;20344;-78
2023/05/22 08:18:16;;;;;;;6.75;5.80;;;21.40;61.80;;;;;;5013912;28;20083;-78
2023/05/22 08:20:41;;;;;;;7.28;5.65;;;21.50;61.70;;;;;;5029248;28;20180;-79
2023/05/22 08:23:07;;;;;;;6.57;5.68;;;21.50;61.70;;;;;;5012869;28;20026;-78
2023/05/22 08:25:33;;;;;;;7.28;6.13;;;21.60;61.70;;;;;;5012888;28;20030;-78
2023/05/22 08:27:59;;;;;;;7.38;5.82;;;21.70;61.60;;;;;;4996037;28;20034;-77
2023/05/22 08:30:24;;;;;;;6.35;5.38;;;21.70;61.50;;;;;;4996533;28;20061;-78
2023/05/22 08:32:50;;;;;;;6.60;5.57;;;21.80;61.50;;;;;;5017500;28;20131;-78
2023/05/22 08:35:16;;;;;;;6.20;5.57;;;21.90;61.40;;;;;;5016908;28;20034;-78
2023/05/22 08:37:43;;;;;;;6.90;5.82;;;21.90;61.40;;;;;;5016904;28;20471;-79
2023/05/22 08:40:13;;;;;;;7.30;6.45;;;22.00;61.40;;;;;;5016211;28;20030;-78
2023/05/22 08:42:40;;;;;;;6.53;5.57;;;22.10;61.40;;;;;;5032673;28;20037;-77
2023/05/22 08:45:06;;;;;;;6.55;5.45;;;22.20;61.30;;;;;;5016321;28;20029;-77
2023/05/22 08:47:37;;;;;;;6.90;5.82;;;22.20;61.30;;;;;;5016518;28;20395;-76
2023/05/22 08:50:03;;;;;;;7.03;5.47;;;22.30;61.40;;;;;;5049694;28;20081;-77
2023/05/22 08:52:34;;;;;;;6.45;5.63;;;22.40;61.40;;;;;;5032114;28;20026;-75
2023/05/22 08:55:03;;;;;;;6.53;5.60;;;22.50;61.40;;;;;;5032594;28;20363;-77
2023/05/22 08:57:31;;;;;;;6.38;5.30;;;22.60;61.40;;;;;;5017735;28;20083;-77
2023/05/22 08:59:57;;;;;;;6.95;5.72;;;22.70;61.40;;;;;;5032311;28;20506;-77
2023/05/22 09:02:24;;;;;;;7.20;5.97;;;22.80;61.30;;;;;;5001007;28;20065;-75
2023/05/22 09:04:51;;;;;;;6.28;5.60;;;22.80;61.30;;;;;;5033797;28;20455;-76
2023/05/22 09:07:17;;;;;;;7.50;6.22;;;22.90;61.40;;;;;;5016103;28;20034;-77
2023/05/22 09:09:43;;;;;;;6.75;5.90;;;23.10;61.50;;;;;;5016025;28;20061;-78
2023/05/22 09:12:09;;;;;;;6.20;5.45;;;23.10;62.10;;;;;;5015874;28;20092;-77
2023/05/22 09:14:42;;;;;;;7.00;6.13;;;23.20;61.50;;;;;;5016230;28;20022;-76
2023/05/22 09:17:13;;;;;;;7.72;5.95;;;23.30;61.60;;;;;;5016966;28;20022;-76
2023/05/22 09:19:43;;;;;;;6.55;5.65;;;23.40;61.50;;;;;;5016923;28;20034;-77
2023/05/22 09:22:09;;;;;;;6.93;5.97;;;23.50;61.60;;;;;;5015648;28;20593;-77
2023/05/22 09:24:42;;;;;;;7.20;5.90;;;23.60;61.50;;;;;;5015497;28;20120;-76
2023/05/22 09:27:09;;;;;;;6.93;5.95;;;23.70;61.50;;;;;;5032049;28;20041;-77
2023/05/22 09:29:52;;;;;;;6.85;6.15;;;23.80;61.40;;;;;;5032302;28;20517;-77
2023/05/22 09:32:18;;;;;;;7.07;5.82;;;23.90;61.60;;;;;;4998936;28;20551;-77
2023/05/22 09:34:45;;;;;;;6.35;5.70;;;23.90;61.30;;;;;;5015498;28;20029;-76
2023/05/22 09:37:12;;;;;;;7.43;6.32;;;24.00;61.40;;;;;;5016245;28;20076;-78
2023/05/22 09:39:40;;;;;;;7.63;6.25;;;24.10;61.40;;;;;;5015425;28;20030;-77
2023/05/22 09:42:08;;;;;;;6.78;5.55;;;24.20;61.50;;;;;;5014645;28;20105;-75
2023/05/22 09:44:34;;;;;;;6.80;6.10;;;24.20;61.60;;;;;;5016213;28;20537;-76
2023/05/22 09:47:01;;;;;;;6.05;5.43;;;24.30;61.60;;;;;;5016074;28;20038;-76
2023/05/22 09:49:26;;;;;;;6.45;5.50;;;24.40;61.70;;;;;;4983173;28;20065;-76
2023/05/22 09:51:53;;;;;;;6.85;5.82;;;24.40;61.60;;;;;;4998926;28;20061;-77
2023/05/22 09:54:20;;;;;;;6.30;5.53;;;24.50;61.60;;;;;;5014849;28;20621;-77
2023/05/22 09:56:50;;;;;;;6.68;5.72;;;24.60;61.60;;;;;;5016537;28;20497;-77
2023/05/22 09:59:25;;;;;;;6.28;5.47;;;24.60;61.60;;;;;;5015011;28;20145;-77
2023/05/22 10:01:52;;;;;;;7.07;5.43;;;24.70;61.50;;;;;;5015856;28;20474;-76
2023/05/22 10:04:20;;;;;;;6.38;5.57;;;24.80;61.40;;;;;;5031590;28;20025;-77
2023/05/22 10:06:50;;;;;;;6.55;5.72;;;24.80;61.40;;;;;;5031657;28;20053;-76
2023/05/22 10:09:17;;;;;;;6.05;5.07;;;24.90;61.50;;;;;;5031440;28;20038;-77
2023/05/22 10:11:43;;;;;;;6.95;5.45;;;25.00;61.60;;;;;;5031253;28;20017;-77
2023/05/22 10:14:10;;;;;;;5.97;5.38;;;25.10;61.60;;;;;;5030939;28;20026;-80
2023/05/22 10:16:40;;;;;;;6.20;5.47;;;25.10;61.60;;;;;;5031144;28;20104;-78
2023/05/22 10:19:07;;;;;;;5.82;5.15;;;25.20;61.70;;;;;;5016155;28;20045;-78
2023/05/22 10:21:35;;;;;;;6.30;5.40;;;25.30;61.70;;;;;;4999011;28;20034;-79
2023/05/22 10:24:02;;;;;;;5.90;5.07;;;25.30;61.70;;;;;;5047762;28;20402;-77
2023/05/22 10:26:28;;;;;;;6.25;5.55;;;25.40;61.70;;;;;;5014236;28;20505;-77
2023/05/22 10:29:03;;;;;;;6.10;5.25;;;25.50;61.80;;;;;;5047410;28;20046;-77
2023/05/22 10:31:47;;;;;;;5.80;5.20;;;25.60;61.80;;;;;;5015126;28;20475;-77
2023/05/22 10:34:46;;;;;;;5.68;4.68;;;25.70;61.80;;;;;;5014310;28;20034;-77
2023/05/22 10:37:21;;;;;;;5.35;4.78;;;25.80;61.80;;;;;;5014496;28;20061;-76
2023/05/22 10:40:00;;;;;;;5.90;4.93;;;25.90;62.20;;;;;;5047706;28;20077;-77
2023/05/22 10:42:30;;;;;;;5.70;4.85;;;25.90;61.30;;;;;;5014285;28;20037;-76
2023/05/22 10:44:57;;;;;;;6.28;5.32;;;26.00;61.50;;;;;;5015039;28;20064;-76
2023/05/22 10:47:25;;;;;;;5.43;4.68;;;26.10;61.50;;;;;;5014770;28;20065;-78
2023/05/22 10:50:10;;;;;;;5.75;4.88;;;26.20;61.40;;;;;;5014651;28;20030;-76
2023/05/22 10:52:37;;;;;;;5.13;4.50;;;26.20;61.40;;;;;;5015492;28;20030;-76
2023/05/22 10:55:08;;;;;;;6.70;5.40;;;26.30;61.40;;;;;;5012951;28;20085;-76
2023/05/22 10:57:36;;;;;;;6.32;5.50;;;26.40;61.40;;;;;;5030672;28;20459;-76
2023/05/22 11:00:06;;;;;;;6.03;5.28;;;26.40;61.40;;;;;;5015311;28;20443;-77
2023/05/22 11:02:41;;;;;;;5.60;4.88;;;26.40;61.40;;;;;;5013961;28;20034;-77
2023/05/22 11:05:15;;;;;;;6.43;5.22;;;26.50;61.50;;;;;;5015526;28;20037;-77
2023/05/22 11:07:41;;;;;;;6.93;5.13;;;26.50;61.50;;;;;;5014588;28;20030;-78
2023/05/22 11:10:07;;;;;;;5.97;5.18;;;26.60;61.40;;;;;;5013646;28;20033;-77
2023/05/22 11:12:33;;;;;;;6.00;5.25;;;26.60;61.40;;;;;;5014664;28;20033;-77
2023/05/22 11:15:09;;;;;;;5.88;5.05;;;26.60;61.40;;;;;;5013717;28;20107;-76
2023/05/22 11:17:38;;;;;;;6.32;4.93;;;26.70;61.50;;;;;;5029949;28;20026;-77
2023/05/22 11:20:18;;;;;;;6.10;5.38;;;26.70;61.40;;;;;;5015536;28;20366;-76
2023/05/22 11:23:02;;;;;;;6.47;5.43;;;26.80;61.40;;;;;;5013808;28;20041;-77
2023/05/22 11:25:28;;;;;;;5.75;5.15;;;26.80;61.60;;;;;;5030227;28;20037;-76
2023/05/22 11:27:56;;;;;;;5.93;5.32;;;26.80;61.60;;;;;;5013497;28;20034;-76
2023/05/22 11:30:27;;;;;;;6.13;5.53;;;26.80;61.60;;;;;;5046434;28;20105;-76
2023/05/22 11:32:52;;;;;;;6.50;5.38;;;26.90;61.70;;;;;;5013276;28;20069;-78
2023/05/22 11:35:20;;;;;;;5.90;5.18;;;26.90;61.60;;;;;;5046438;28;20029;-76
2023/05/22 11:37:48;;;;;;;5.97;5.30;;;26.90;61.70;;;;;;5013563;28;20069;-77
2023/05/22 11:40:23;;;;;;;6.07;5.47;;;26.90;61.60;;;;;;5014435;28;20076;-77
2023/05/22 11:42:49;;;;;;;6.22;5.35;;;27.00;61.70;;;;;;5014382;28;20072;-77
2023/05/22 11:45:16;;;;;;;5.55;4.90;;;27.00;61.50;;;;;;5014031;28;20466;-76
2023/05/22 11:47:43;;;;;;;6.07;5.43;;;27.00;61.40;;;;;;5013013;28;20046;-77
2023/05/22 11:50:10;;;;;;;6.28;5.57;;;27.10;61.40;;;;;;5029599;28;20076;-76
2023/05/22 11:52:38;;;;;;;6.30;5.70;;;27.10;61.40;;;;;;5013001;28;20037;-77
2023/05/22 11:55:04;;;;;;;6.03;5.22;;;27.10;61.30;;;;;;5029056;28;20125;-78
2023/05/22 11:57:31;;;;;;;6.80;6.10;;;27.20;61.40;;;;;;5013899;28;20109;-78
2023/05/22 11:59:57;;;;;;;6.80;5.78;;;27.20;61.30;;;;;;5029200;28;20072;-77
2023/05/22 12:02:23;;;;;;;6.32;5.65;;;27.20;61.30;;;;;;5029255;28;20093;-78
2023/05/22 12:04:56;;;;;;;6.32;5.05;;;27.30;61.30;;;;;;5012867;28;20430;-78
2023/05/22 12:07:23;;;;;;;6.07;5.38;;;27.30;61.40;;;;;;5012845;28;20076;-77
2023/05/22 12:09:49;;;;;;;7.45;5.57;;;27.30;61.30;;;;;;5029682;28;20030;-77
2023/05/22 12:12:15;;;;;;;5.55;4.90;;;27.30;61.40;;;;;;5029368;28;20090;-76
2023/05/22 12:14:44;;;;;;;6.95;5.93;;;27.30;61.40;;;;;;5012628;28;20383;-76
2023/05/22 12:17:13;;;;;;;7.05;6.25;;;27.30;61.40;;;;;;5012330;28;20459;-77
2023/05/22 12:19:40;;;;;;;6.25;5.38;;;27.40;61.60;;;;;;5029039;28;20025;-77
2023/05/22 12:22:07;;;;;;;6.45;5.75;;;27.40;61.50;;;;;;5013042;28;20030;-78
2023/05/22 12:24:40;;;;;;;6.45;5.75;;;27.40;61.40;;;;;;5045630;28;20386;-77
2023/05/22 12:27:10;;;;;;;6.35;5.72;;;27.50;61.50;;;;;;5013637;28;20092;-78
2023/05/22 12:29:36;;;;;;;6.15;5.30;;;27.50;61.40;;;;;;5045404;28;20041;-78
2023/05/22 12:32:03;;;;;;;6.47;5.78;;;27.50;61.30;;;;;;5028846;28;20022;-76
2023/05/22 12:34:40;;;;;;;6.57;5.88;;;27.50;61.30;;;;;;5013673;28;20083;-77
2023/05/22 12:37:26;;;;;;;6.57;5.72;;;27.60;61.20;;;;;;5013785;28;20030;-77
2023/05/22 12:40:00;;;;;;;6.00;5.15;;;27.60;61.20;;;;;;5013442;28;20048;-77
2023/05/22 12:42:27;;;;;;;6.20;5.60;;;27.60;61.10;;;;;;5014145;28;20152;-78
2023/05/22 12:44:55;;;;;;;5.78;5.13;;;27.60;61.00;;;;;;4995962;28;20026;-76
2023/05/22 12:47:22;;;;;;;6.13;5.53;;;27.70;61.10;;;;;;5013678;28;20074;-77
2023/05/22 12:49:48;;;;;;;6.03;5.38;;;27.70;61.00;;;;;;5028773;28;20477;-78
2023/05/22 12:52:14;;;;;;;6.00;5.25;;;27.70;61.00;;;;;;5045306;28;20034;-77
2023/05/22 12:54:40;;;;;;;6.53;5.80;;;27.70;61.00;;;;;;5028515;28;20054;-76